Time;durP1;ratioP1;P1;durP2;ratioP2;P2;SDS_P1;SDS_P2;PMS_P1;PMS_P2;Temp;Humidity;BMP_temperature;BMP_pressure;BME280_temperature;BME280_humidity;BME280_pressure;Samples;Min_cycle;Max_cycle;Signal;HPM_P1;HPM_P2
2024/01/04 00:00:12;;;;;;;4.30;2.60;;;7.20;99.90;;;;;;4998035;28;20462;-64
2024/01/04 00:02:39;;;;;;;5.93;2.70;;;7.20;99.90;;;;;;4998657;28;20449;-64
2024/01/04 00:05:07;;;;;;;6.00;2.60;;;7.20;99.90;;;;;;4998808;28;20882;-65
2024/01/04 00:07:35;;;;;;;3.83;2.57;;;7.20;99.90;;;;;;4998062;28;20461;-65
2024/01/04 00:10:02;;;;;;;4.30;2.30;;;7.20;99.90;;;;;;4997981;28;20542;-66
2024/01/04 00:12:29;;;;;;;6.37;2.40;;;7.20;99.90;;;;;;4998399;28;20508;-66
2024/01/04 00:14:59;;;;;;;6.17;2.63;;;7.20;99.90;;;;;;4998366;28;20463;-65
2024/01/04 00:17:28;;;;;;;3.50;2.30;;;7.20;99.90;;;;;;4998408;28;21028;-64
2024/01/04 00:19:55;;;;;;;3.50;2.07;;;7.20;99.90;;;;;;4997778;28;20531;-65
2024/01/04 00:22:23;;;;;;;3.20;2.00;;;7.20;99.90;;;;;;4997599;28;20468;-65
2024/01/04 00:24:50;;;;;;;2.60;2.00;;;7.20;99.90;;;;;;4997718;28;20508;-66
2024/01/04 00:27:18;;;;;;;3.93;2.20;;;7.30;99.90;;;;;;4997933;28;20493;-66
2024/01/04 00:29:45;;;;;;;3.27;2.43;;;7.30;99.90;;;;;;4997900;28;20472;-66
2024/01/04 00:32:13;;;;;;;4.10;2.40;;;7.30;99.90;;;;;;4997740;28;20469;-67
2024/01/04 00:34:42;;;;;;;6.00;3.00;;;7.30;99.90;;;;;;4997985;28;20519;-67
2024/01/04 00:37:09;;;;;;;4.30;2.60;;;7.40;99.90;;;;;;4998144;28;20521;-67
2024/01/04 00:39:36;;;;;;;5.03;2.90;;;7.40;99.90;;;;;;4997619;28;20736;-67
2024/01/04 00:42:04;;;;;;;4.33;3.17;;;7.40;99.90;;;;;;4997059;28;20485;-68
2024/01/04 00:44:31;;;;;;;4.10;3.00;;;7.40;99.90;;;;;;4997764;28;20464;-68
2024/01/04 00:46:58;;;;;;;6.53;3.70;;;7.40;99.90;;;;;;4998123;28;20553;-68
2024/01/04 00:49:26;;;;;;;4.60;3.10;;;7.40;99.90;;;;;;4997086;28;20463;-67
2024/01/04 00:51:55;;;;;;;4.60;3.60;;;7.40;99.90;;;;;;4997599;28;20461;-70
2024/01/04 00:54:22;;;;;;;5.67;4.30;;;7.50;99.90;;;;;;4997465;28;20890;-69
2024/01/04 00:56:49;;;;;;;9.23;4.97;;;7.40;99.90;;;;;;4997861;28;20585;-69
2024/01/04 00:59:16;;;;;;;8.17;4.77;;;7.40;99.90;;;;;;4998153;28;20516;-70
2024/01/04 01:01:44;;;;;;;6.47;4.90;;;7.50;99.90;;;;;;4998222;28;20485;-70
2024/01/04 01:04:11;;;;;;;8.17;5.10;;;7.50;99.90;;;;;;4997903;28;20920;-69
2024/01/04 01:06:39;;;;;;;7.70;4.80;;;7.50;99.90;;;;;;4997601;28;20457;-70
2024/01/04 01:09:07;;;;;;;7.40;5.20;;;7.50;99.90;;;;;;4999562;28;20460;-70
2024/01/04 01:11:35;;;;;;;7.20;5.30;;;7.50;99.90;;;;;;5003020;28;20460;-68
2024/01/04 01:14:02;;;;;;;7.00;5.83;;;7.50;99.90;;;;;;5003013;28;20857;-70
2024/01/04 01:16:29;;;;;;;9.20;5.83;;;7.50;99.90;;;;;;5002819;28;20941;-70
2024/01/04 01:18:57;;;;;;;9.43;6.03;;;7.50;99.90;;;;;;5002620;28;20820;-67
2024/01/04 01:21:24;;;;;;;8.77;5.77;;;7.50;99.90;;;;;;5001309;28;20469;-69
2024/01/04 01:23:51;;;;;;;8.77;5.53;;;7.50;99.90;;;;;;5000349;28;20464;-68
2024/01/04 01:26:20;;;;;;;7.60;6.40;;;7.60;99.90;;;;;;5000958;28;20461;-67
2024/01/04 01:28:47;;;;;;;7.90;6.13;;;7.50;99.90;;;;;;5001247;28;20473;-66
2024/01/04 01:31:14;;;;;;;8.20;6.40;;;7.50;99.90;;;;;;5001318;28;21121;-67
2024/01/04 01:33:44;;;;;;;12.60;6.57;;;7.50;99.90;;;;;;5010883;28;20542;-67
2024/01/04 01:36:11;;;;;;;10.73;6.60;;;7.50;99.90;;;;;;5020363;28;20498;-67
2024/01/04 01:38:39;;;;;;;8.00;6.10;;;7.50;99.90;;;;;;5020331;28;20466;-66
2024/01/04 01:41:06;;;;;;;7.53;6.17;;;7.60;99.90;;;;;;5020769;28;20482;-64
2024/01/04 01:43:35;;;;;;;12.10;6.47;;;7.60;99.90;;;;;;5019939;28;20467;-62
2024/01/04 01:46:03;;;;;;;9.63;6.90;;;7.50;99.90;;;;;;5020360;28;20917;-64
2024/01/04 01:48:30;;;;;;;12.30;5.93;;;7.50;99.90;;;;;;5020614;28;20468;-65
2024/01/04 01:50:59;;;;;;;10.60;6.80;;;7.50;99.90;;;;;;5020380;28;20839;-65
2024/01/04 01:53:26;;;;;;;9.00;6.30;;;7.50;99.90;;;;;;5020339;28;20553;-64
2024/01/04 01:55:54;;;;;;;6.73;5.10;;;7.50;99.90;;;;;;5019818;28;20494;-65
2024/01/04 01:58:22;;;;;;;11.10;5.90;;;7.50;99.90;;;;;;5020188;28;20940;-64
2024/01/04 02:00:51;;;;;;;7.23;6.10;;;7.50;99.90;;;;;;5020040;28;20452;-64
2024/01/04 02:03:19;;;;;;;12.70;6.93;;;7.60;99.90;;;;;;5020273;28;20503;-62
2024/01/04 02:05:46;;;;;;;9.03;6.20;;;7.60;99.90;;;;;;5019827;28;20468;-65
2024/01/04 02:08:13;;;;;;;8.93;5.57;;;7.50;99.90;;;;;;5019858;28;20490;-64
2024/01/04 02:10:40;;;;;;;8.13;6.07;;;7.50;99.90;;;;;;5019536;28;20460;-65
2024/01/04 02:13:09;;;;;;;6.30;5.13;;;7.50;99.90;;;;;;5020304;28;20461;-62
2024/01/04 02:15:36;;;;;;;9.90;4.37;;;7.50;99.90;;;;;;5019362;28;20535;-64
2024/01/04 02:18:05;;;;;;;4.77;3.60;;;7.50;99.90;;;;;;5019652;28;20496;-64
2024/01/04 02:20:33;;;;;;;3.90;2.80;;;7.50;99.90;;;;;;5018961;28;20460;-64
2024/01/04 02:23:01;;;;;;;4.53;3.10;;;7.50;99.90;;;;;;5019715;28;20464;-65
2024/01/04 02:25:29;;;;;;;3.90;2.80;;;7.40;99.90;;;;;;5018998;28;20512;-64
2024/01/04 02:27:56;;;;;;;5.33;3.70;;;7.40;99.90;;;;;;5019396;28;20773;-65
2024/01/04 02:30:23;;;;;;;4.10;3.17;;;7.40;99.90;;;;;;5019579;28;20456;-65
2024/01/04 02:32:51;;;;;;;5.37;4.17;;;7.40;99.90;;;;;;5019677;28;20823;-66
2024/01/04 02:35:19;;;;;;;5.53;3.80;;;7.50;99.90;;;;;;5019520;28;20503;-66
2024/01/04 02:37:46;;;;;;;4.53;3.97;;;7.40;99.90;;;;;;5018955;28;20488;-66
2024/01/04 02:40:15;;;;;;;5.00;3.57;;;7.40;99.90;;;;;;5018879;28;20464;-66
2024/01/04 02:42:42;;;;;;;7.33;3.23;;;7.40;99.90;;;;;;5019353;28;20469;-66
2024/01/04 02:45:09;;;;;;;8.60;4.00;;;7.30;99.90;;;;;;5019159;28;20762;-67
2024/01/04 02:47:37;;;;;;;5.07;3.77;;;7.30;99.90;;;;;;5019151;28;20518;-67
2024/01/04 02:50:05;;;;;;;5.83;3.83;;;7.30;99.90;;;;;;5018893;28;20838;-67
2024/01/04 02:52:32;;;;;;;5.57;4.80;;;7.30;99.90;;;;;;5008116;28;20892;-67
2024/01/04 02:55:00;;;;;;;9.97;5.20;;;7.30;99.90;;;;;;4999695;28;20469;-67
2024/01/04 02:57:28;;;;;;;5.37;4.50;;;7.30;99.90;;;;;;4998887;28;20492;-67
2024/01/04 02:59:56;;;;;;;8.10;4.83;;;7.30;99.90;;;;;;4999198;28;20936;-67
2024/01/04 03:02:23;;;;;;;12.23;4.87;;;7.30;99.90;;;;;;4999079;28;20471;-66
2024/01/04 03:04:51;;;;;;;8.40;5.67;;;7.30;99.90;;;;;;4999556;28;20461;-64
2024/01/04 03:07:18;;;;;;;7.10;5.90;;;7.30;99.90;;;;;;4999520;28;20449;-65
2024/01/04 03:09:48;;;;;;;6.57;5.53;;;7.30;99.90;;;;;;4999311;28;20923;-65
2024/01/04 03:12:16;;;;;;;7.20;5.10;;;7.30;99.90;;;;;;4999333;28;20465;-65
2024/01/04 03:14:44;;;;;;;6.70;5.77;;;7.30;99.90;;;;;;4999544;28;20747;-66
2024/01/04 03:17:12;;;;;;;6.60;5.13;;;7.20;99.90;;;;;;4999513;28;20918;-66
2024/01/04 03:19:39;;;;;;;7.33;5.50;;;7.30;99.90;;;;;;4999102;28;20496;-67
2024/01/04 03:22:06;;;;;;;8.80;5.60;;;7.20;99.90;;;;;;4998879;28;20456;-67
2024/01/04 03:24:34;;;;;;;9.13;5.87;;;7.30;99.90;;;;;;4999067;28;20512;-65
2024/01/04 03:27:01;;;;;;;8.27;4.93;;;7.20;99.90;;;;;;4998798;28;20527;-65
2024/01/04 03:29:28;;;;;;;6.40;4.43;;;7.20;99.90;;;;;;4998862;28;20485;-65
2024/01/04 03:31:57;;;;;;;7.30;4.33;;;7.20;99.90;;;;;;4998371;28;20500;-66
2024/01/04 03:34:24;;;;;;;5.27;4.00;;;7.20;99.90;;;;;;4998947;28;20460;-67
2024/01/04 03:36:52;;;;;;;6.10;3.50;;;7.10;99.90;;;;;;4998930;28;20493;-67
2024/01/04 03:39:19;;;;;;;7.40;3.40;;;7.00;99.90;;;;;;4998962;28;20493;-67
2024/01/04 03:41:46;;;;;;;6.63;3.50;;;7.00;99.90;;;;;;4998378;28;20507;-67
2024/01/04 03:44:14;;;;;;;5.57;3.53;;;7.00;99.90;;;;;;4998455;28;20886;-67
2024/01/04 03:46:41;;;;;;;5.90;3.80;;;7.00;99.90;;;;;;4998493;28;20435;-65
2024/01/04 03:49:11;;;;;;;4.67;3.20;;;7.00;99.90;;;;;;4998593;28;20461;-64
2024/01/04 03:51:38;;;;;;;4.83;3.40;;;7.00;99.90;;;;;;4998075;28;20494;-64
2024/01/04 03:54:05;;;;;;;5.00;3.10;;;7.00;99.90;;;;;;4998494;28;20488;-64
2024/01/04 03:56:33;;;;;;;7.40;3.10;;;7.00;99.90;;;;;;4998314;28;20555;-65
2024/01/04 03:59:00;;;;;;;6.67;2.70;;;7.00;99.90;;;;;;4998394;28;20555;-64
2024/01/04 04:01:27;;;;;;;3.90;2.80;;;7.00;99.90;;;;;;4998473;28;20507;-64
2024/01/04 04:03:54;;;;;;;4.77;2.93;;;7.00;99.90;;;;;;4997862;28;20468;-65
2024/01/04 04:06:23;;;;;;;4.47;3.10;;;6.90;99.90;;;;;;5006377;28;20863;-64
2024/01/04 04:08:50;;;;;;;6.03;3.23;;;6.90;99.90;;;;;;5017639;28;20518;-64
2024/01/04 04:11:18;;;;;;;7.33;4.20;;;6.90;99.90;;;;;;5016883;28;20494;-64
2024/01/04 04:13:45;;;;;;;7.50;3.67;;;6.80;99.90;;;;;;4997753;28;20516;-65
2024/01/04 04:16:12;;;;;;;6.70;4.00;;;6.80;99.90;;;;;;4998135;28;20497;-65
2024/01/04 04:18:40;;;;;;;5.83;4.80;;;6.90;99.90;;;;;;4997931;28;20583;-66
2024/01/04 04:21:07;;;;;;;9.67;5.40;;;6.90;99.90;;;;;;4998401;28;20551;-65
2024/01/04 04:23:35;;;;;;;5.93;4.80;;;7.00;99.90;;;;;;4998109;28;20544;-64
2024/01/04 04:26:06;;;;;;;8.47;5.93;;;7.00;99.90;;;;;;4997964;28;20504;-64
2024/01/04 04:28:34;;;;;;;7.63;6.47;;;7.10;99.90;;;;;;4998035;28;20480;-65
2024/01/04 04:31:03;;;;;;;16.47;8.10;;;7.10;99.90;;;;;;4997965;28;20555;-65
2024/01/04 04:33:30;;;;;;;14.90;7.50;;;7.20;99.90;;;;;;4997359;28;20457;-66
2024/01/04 04:35:57;;;;;;;13.93;8.90;;;7.20;99.90;;;;;;4997736;28;20759;-66
2024/01/04 04:38:24;;;;;;;12.60;9.57;;;7.20;99.90;;;;;;4997820;28;20498;-67
2024/01/04 04:40:53;;;;;;;16.80;9.83;;;7.30;99.90;;;;;;4998138;28;20504;-67
2024/01/04 04:43:20;;;;;;;15.00;9.83;;;7.30;99.90;;;;;;4997199;28;20561;-67
2024/01/04 04:45:47;;;;;;;14.70;8.20;;;7.30;99.90;;;;;;4997462;28;20508;-67
2024/01/04 04:48:14;;;;;;;12.93;8.53;;;7.30;99.90;;;;;;4997458;28;20527;-66
2024/01/04 04:50:42;;;;;;;11.63;8.90;;;7.40;99.90;;;;;;4997764;28;20575;-68
2024/01/04 04:53:09;;;;;;;10.97;8.00;;;7.30;99.90;;;;;;4997906;28;20504;-66
2024/01/04 04:55:36;;;;;;;15.47;7.73;;;7.40;99.90;;;;;;4997469;28;20475;-68
2024/01/04 04:58:05;;;;;;;15.53;7.30;;;7.40;99.90;;;;;;4997485;28;20877;-68
2024/01/04 05:00:32;;;;;;;9.47;7.27;;;7.40;99.90;;;;;;4997974;28;20504;-68
2024/01/04 05:02:59;;;;;;;18.20;7.80;;;7.30;99.90;;;;;;4997857;28;20854;-68
2024/01/04 05:05:26;;;;;;;8.60;6.20;;;7.40;99.90;;;;;;4997756;28;20497;-70
2024/01/04 05:07:54;;;;;;;9.83;6.30;;;7.30;99.90;;;;;;4997702;28;20547;-68
2024/01/04 05:10:21;;;;;;;8.93;6.30;;;7.30;99.90;;;;;;4997784;28;20471;-70
2024/01/04 05:12:49;;;;;;;11.23;6.30;;;7.30;99.90;;;;;;4997473;28;20563;-69
2024/01/04 05:15:18;;;;;;;13.60;6.20;;;7.30;99.90;;;;;;4997570;28;20465;-70
2024/01/04 05:17:45;;;;;;;7.80;5.37;;;7.40;99.90;;;;;;4997763;28;20818;-71
2024/01/04 05:20:12;;;;;;;11.87;5.83;;;7.40;99.90;;;;;;5005173;28;20484;-70
2024/01/04 05:22:40;;;;;;;8.97;5.37;;;7.30;99.90;;;;;;5017289;28;20468;-71
2024/01/04 05:25:08;;;;;;;11.00;5.47;;;7.30;99.90;;;;;;5016747;28;20789;-71
2024/01/04 05:27:35;;;;;;;11.50;6.60;;;7.40;99.90;;;;;;5017118;28;20452;-72
2024/01/04 05:30:02;;;;;;;11.07;6.47;;;7.40;99.90;;;;;;5016552;28;20556;-71
2024/01/04 05:32:31;;;;;;;15.97;7.00;;;7.40;99.90;;;;;;5016790;28;20499;-71
2024/01/04 05:34:58;;;;;;;9.60;6.97;;;7.40;99.90;;;;;;5016726;28;20464;-71
2024/01/04 05:37:25;;;;;;;13.80;7.20;;;7.40;99.90;;;;;;5017307;28;20495;-72
2024/01/04 05:39:52;;;;;;;11.00;6.80;;;7.40;99.90;;;;;;5019618;28;20466;-72
2024/01/04 05:42:20;;;;;;;8.97;6.33;;;7.40;99.90;;;;;;5017376;28;20551;-71
2024/01/04 05:44:47;;;;;;;8.73;6.30;;;7.40;99.90;;;;;;5018263;28;20644;-71
2024/01/04 05:47:14;;;;;;;9.30;6.90;;;7.40;99.90;;;;;;5016339;28;20551;-71
2024/01/04 05:49:43;;;;;;;11.07;7.67;;;7.40;99.90;;;;;;5000460;28;20933;-72
2024/01/04 05:52:10;;;;;;;9.13;6.90;;;7.40;99.90;;;;;;5016124;28;20472;-71
2024/01/04 05:54:37;;;;;;;13.43;7.50;;;7.40;99.90;;;;;;5018290;28;20546;-71
2024/01/04 05:57:05;;;;;;;13.20;8.00;;;7.40;99.90;;;;;;5021537;28;20758;-72
2024/01/04 05:59:32;;;;;;;13.63;8.23;;;7.40;99.90;;;;;;5021851;28;20546;-71
2024/01/04 06:01:59;;;;;;;13.83;7.80;;;7.40;99.90;;;;;;5021013;28;20563;-72
2024/01/04 06:04:27;;;;;;;14.30;8.70;;;7.40;99.90;;;;;;5022786;28;20499;-71
2024/01/04 06:06:55;;;;;;;10.83;8.33;;;7.40;99.90;;;;;;5023025;28;20438;-72
2024/01/04 06:09:22;;;;;;;15.70;8.97;;;7.40;99.90;;;;;;5022302;28;20456;-71
2024/01/04 06:11:50;;;;;;;15.83;7.30;;;7.40;99.90;;;;;;5023443;28;20582;-74
2024/01/04 06:14:18;;;;;;;11.77;8.37;;;7.40;99.90;;;;;;5021368;28;20468;-71
2024/01/04 06:16:45;;;;;;;11.20;8.80;;;7.40;99.90;;;;;;5021210;28;20464;-72
2024/01/04 06:19:13;;;;;;;15.57;8.50;;;7.40;99.90;;;;;;5021325;28;20495;-69
2024/01/04 06:21:40;;;;;;;12.63;8.33;;;7.50;99.90;;;;;;5020989;28;20940;-72
2024/01/04 06:24:09;;;;;;;12.73;8.60;;;7.50;99.90;;;;;;5020496;28;20530;-70
2024/01/04 06:26:36;;;;;;;13.63;9.20;;;7.50;99.90;;;;;;5021451;28;20495;-71
2024/01/04 06:29:03;;;;;;;9.40;7.70;;;7.50;99.90;;;;;;5020817;28;20510;-72
2024/01/04 06:31:30;;;;;;;13.03;7.97;;;7.60;99.90;;;;;;5020202;28;20511;-72
2024/01/04 06:33:57;;;;;;;9.80;7.97;;;7.60;99.90;;;;;;5019252;28;20535;-71
2024/01/04 06:36:25;;;;;;;11.93;9.20;;;7.60;99.90;;;;;;5023686;28;20591;-67
2024/01/04 06:38:52;;;;;;;11.70;7.93;;;7.50;99.90;;;;;;5019604;28;20558;-66
2024/01/04 06:41:21;;;;;;;11.47;8.33;;;7.50;99.90;;;;;;5019533;28;20471;-65
2024/01/04 06:43:49;;;;;;;11.07;8.20;;;7.60;99.90;;;;;;5019433;28;20461;-67
2024/01/04 06:46:16;;;;;;;8.90;6.70;;;7.60;99.90;;;;;;5019313;28;20464;-69
2024/01/04 06:48:43;;;;;;;8.90;7.00;;;7.50;99.90;;;;;;5019403;28;20459;-69
2024/01/04 06:51:11;;;;;;;8.23;6.87;;;7.50;99.90;;;;;;5019283;28;20460;-70
2024/01/04 06:53:38;;;;;;;8.17;6.73;;;7.40;99.90;;;;;;5019261;28;20496;-69
2024/01/04 06:56:06;;;;;;;7.70;5.83;;;7.40;99.90;;;;;;5019076;28;20464;-69
2024/01/04 06:58:35;;;;;;;6.73;6.07;;;7.40;99.90;;;;;;5019252;28;20763;-70
2024/01/04 07:01:02;;;;;;;10.27;6.27;;;7.40;99.90;;;;;;5019087;28;20551;-70
2024/01/04 07:03:30;;;;;;;8.90;6.80;;;7.40;99.90;;;;;;5018901;28;20464;-69
2024/01/04 07:05:57;;;;;;;8.27;6.67;;;7.40;99.90;;;;;;5017825;28;20468;-70
2024/01/04 07:08:24;;;;;;;8.80;6.40;;;7.40;99.90;;;;;;5018938;28;20494;-71
2024/01/04 07:10:51;;;;;;;8.90;6.70;;;7.40;99.90;;;;;;5019021;28;20542;-70
2024/01/04 07:13:19;;;;;;;9.60;6.53;;;7.40;99.90;;;;;;5018845;28;20479;-67
2024/01/04 07:15:49;;;;;;;6.77;6.10;;;7.40;99.90;;;;;;5018610;28;20495;-67
2024/01/04 07:18:17;;;;;;;9.70;6.40;;;7.40;99.90;;;;;;5018247;28;20491;-68
2024/01/04 07:20:44;;;;;;;10.30;6.63;;;7.30;99.90;;;;;;5018887;28;20567;-67
2024/01/04 07:23:12;;;;;;;8.50;6.60;;;7.30;99.90;;;;;;5017969;28;20550;-65
2024/01/04 07:25:40;;;;;;;9.10;6.03;;;7.30;99.90;;;;;;5018062;28;20586;-66
2024/01/04 07:28:07;;;;;;;8.90;6.57;;;7.30;99.90;;;;;;5018065;28;20507;-66
2024/01/04 07:30:35;;;;;;;7.13;6.20;;;7.30;99.90;;;;;;5018694;28;20494;-67
2024/01/04 07:33:05;;;;;;;7.47;5.77;;;7.30;99.90;;;;;;5018441;28;20893;-67
2024/01/04 07:35:32;;;;;;;8.50;5.90;;;7.20;99.90;;;;;;5016720;28;20463;-67
2024/01/04 07:38:00;;;;;;;9.77;6.13;;;7.20;99.90;;;;;;5016746;28;20491;-65
2024/01/04 07:40:27;;;;;;;7.00;6.00;;;7.20;99.90;;;;;;5017004;28;20467;-66
2024/01/04 07:42:54;;;;;;;6.40;5.70;;;7.20;99.90;;;;;;5016884;28;20897;-67
2024/01/04 07:45:21;;;;;;;10.67;6.27;;;7.20;99.90;;;;;;5017773;28;20464;-67
2024/01/04 07:47:48;;;;;;;6.77;5.93;;;7.20;99.90;;;;;;5017276;28;20468;-65
2024/01/04 07:50:17;;;;;;;7.80;5.97;;;7.20;99.90;;;;;;5018064;28;20811;-67
2024/01/04 07:52:44;;;;;;;5.87;4.60;;;7.20;99.90;;;;;;5017817;28;20530;-67
2024/01/04 07:55:12;;;;;;;6.83;5.43;;;7.20;99.90;;;;;;5017869;28;20522;-67
2024/01/04 07:57:39;;;;;;;5.63;4.90;;;7.20;99.90;;;;;;5016227;28;20618;-68
2024/01/04 08:00:10;;;;;;;9.50;5.20;;;7.20;99.90;;;;;;5016595;28;20786;-68
2024/01/04 08:02:37;;;;;;;11.20;6.80;;;7.20;99.90;;;;;;5016620;28;20514;-68
2024/01/04 08:05:05;;;;;;;6.53;5.83;;;7.20;99.90;;;;;;5016821;28;20559;-68
2024/01/04 08:07:33;;;;;;;7.47;5.90;;;7.30;99.90;;;;;;5017163;28;20456;-68
2024/01/04 08:10:01;;;;;;;6.97;5.73;;;7.30;99.90;;;;;;5017417;28;20523;-68
2024/01/04 08:12:28;;;;;;;7.87;5.90;;;7.20;99.90;;;;;;5017467;28;20455;-67
2024/01/04 08:14:56;;;;;;;7.40;5.50;;;7.30;99.90;;;;;;5017744;28;20517;-67
2024/01/04 08:17:23;;;;;;;5.97;5.00;;;7.20;99.90;;;;;;5017525;28;20455;-67
2024/01/04 08:19:50;;;;;;;7.10;5.20;;;7.20;99.90;;;;;;5016863;28;20499;-68
2024/01/04 08:22:18;;;;;;;6.50;5.43;;;7.10;99.90;;;;;;5017755;28;20467;-69
2024/01/04 08:24:49;;;;;;;9.00;5.20;;;7.20;99.90;;;;;;5017201;28;20930;-69
2024/01/04 08:27:19;;;;;;;7.57;5.40;;;7.20;99.90;;;;;;5018028;28;20460;-69
2024/01/04 08:29:49;;;;;;;8.70;5.70;;;7.20;99.90;;;;;;5017219;28;20472;-69
2024/01/04 08:32:17;;;;;;;5.80;4.70;;;7.20;99.90;;;;;;5017351;28;20464;-69
2024/01/04 08:34:46;;;;;;;5.57;5.00;;;7.20;99.90;;;;;;5017568;28;20893;-68
2024/01/04 08:37:14;;;;;;;9.00;4.97;;;7.20;99.90;;;;;;5017367;28;20468;-68
2024/01/04 08:39:41;;;;;;;8.80;5.07;;;7.20;99.90;;;;;;5016636;28;20496;-68
2024/01/04 08:42:10;;;;;;;7.57;5.37;;;7.20;99.90;;;;;;5017295;28;20798;-67
2024/01/04 08:44:38;;;;;;;9.00;5.33;;;7.20;99.90;;;;;;5016427;28;20460;-68
2024/01/04 08:47:05;;;;;;;7.83;5.20;;;7.20;99.90;;;;;;5015365;28;20460;-69
2024/01/04 08:49:32;;;;;;;5.40;4.47;;;7.20;99.90;;;;;;4996667;28;20859;-67
2024/01/04 08:52:00;;;;;;;7.33;4.37;;;7.30;99.90;;;;;;4997994;28;20457;-65
2024/01/04 08:54:27;;;;;;;7.77;4.93;;;7.20;99.90;;;;;;4996980;28;20488;-66
2024/01/04 08:56:55;;;;;;;5.90;4.77;;;7.20;99.90;;;;;;4996283;28;20461;-65
2024/01/04 08:59:24;;;;;;;6.30;4.53;;;7.20;99.90;;;;;;4994790;28;20857;-65
2024/01/04 09:01:51;;;;;;;7.03;4.33;;;7.20;99.90;;;;;;4996528;28;20567;-64
2024/01/04 09:04:20;;;;;;;4.63;3.70;;;7.20;99.90;;;;;;4997147;28;20510;-64
2024/01/04 09:06:47;;;;;;;5.43;3.67;;;7.10;99.90;;;;;;4997005;28;20682;-65
2024/01/04 09:09:15;;;;;;;4.50;3.60;;;7.20;99.90;;;;;;4996617;28;20461;-65
2024/01/04 09:11:48;;;;;;;4.67;4.20;;;7.20;99.90;;;;;;4995266;28;20465;-65
2024/01/04 09:14:15;;;;;;;6.93;4.87;;;7.20;99.90;;;;;;4995091;28;20471;-66
2024/01/04 09:16:46;;;;;;;16.37;7.00;;;7.20;99.90;;;;;;4996218;28;20465;-66
2024/01/04 09:19:17;;;;;;;7.93;5.90;;;7.30;99.90;;;;;;4995935;28;20496;-64
2024/01/04 09:21:44;;;;;;;8.33;6.33;;;7.30;99.90;;;;;;4995837;28;20465;-65
2024/01/04 09:24:13;;;;;;;8.57;6.30;;;7.30;99.90;;;;;;4995636;28;20789;-65
2024/01/04 09:26:41;;;;;;;7.27;6.27;;;7.30;99.90;;;;;;4997672;28;20890;-66
2024/01/04 09:29:08;;;;;;;11.80;6.77;;;7.40;99.90;;;;;;4997997;28;20469;-67
2024/01/04 09:31:36;;;;;;;10.97;7.67;;;7.40;99.90;;;;;;5000641;28;20460;-67
2024/01/04 09:34:06;;;;;;;11.07;7.23;;;7.50;99.90;;;;;;5000978;28;20465;-68
2024/01/04 09:36:33;;;;;;;10.50;6.93;;;7.50;99.90;;;;;;5001266;28;20468;-68
2024/01/04 09:39:03;;;;;;;12.83;8.07;;;7.50;99.90;;;;;;5001017;28;20496;-68
2024/01/04 09:41:32;;;;;;;12.40;7.83;;;7.60;99.90;;;;;;5000733;28;20805;-68
2024/01/04 09:44:03;;;;;;;12.60;8.37;;;7.60;99.90;;;;;;5000588;28;20904;-69
2024/01/04 09:46:35;;;;;;;10.10;8.13;;;7.70;99.90;;;;;;5000706;28;20464;-68
2024/01/04 09:49:03;;;;;;;11.43;7.87;;;7.70;99.90;;;;;;5001218;28;20457;-70
2024/01/04 09:51:35;;;;;;;15.00;8.30;;;7.70;99.90;;;;;;5000636;28;20511;-70
2024/01/04 09:54:02;;;;;;;9.20;7.60;;;7.70;99.90;;;;;;5000547;28;20444;-70
2024/01/04 09:56:32;;;;;;;9.23;6.73;;;7.70;99.90;;;;;;5000787;28;20464;-71
2024/01/04 09:59:00;;;;;;;10.27;7.17;;;7.70;99.90;;;;;;5012366;28;20590;-71
2024/01/04 10:01:33;;;;;;;8.67;6.43;;;7.70;99.90;;;;;;5019735;28;20456;-71
2024/01/04 10:04:06;;;;;;;8.93;6.93;;;7.70;99.90;;;;;;5020060;28;20838;-67
2024/01/04 10:06:37;;;;;;;11.30;7.50;;;7.70;99.90;;;;;;5020097;28;20472;-65
2024/01/04 10:09:18;;;;;;;7.20;6.50;;;7.60;99.90;;;;;;5020247;28;20841;-66
2024/01/04 10:11:56;;;;;;;8.80;6.40;;;7.70;99.90;;;;;;5019826;28;20463;-65
2024/01/04 10:14:24;;;;;;;7.60;5.93;;;7.70;99.90;;;;;;5019589;28;20566;-65
2024/01/04 10:16:52;;;;;;;8.70;6.03;;;7.70;99.90;;;;;;5019994;28;20468;-65
2024/01/04 10:19:20;;;;;;;7.80;5.70;;;7.70;99.90;;;;;;5019721;28;20492;-65
2024/01/04 10:21:49;;;;;;;8.07;5.33;;;7.70;99.90;;;;;;5018048;28;20491;-65
2024/01/04 10:24:22;;;;;;;9.13;6.07;;;7.80;99.90;;;;;;5017884;28;20570;-65
2024/01/04 10:26:56;;;;;;;10.20;6.07;;;7.80;99.90;;;;;;5018280;28;20527;-66
2024/01/04 10:29:25;;;;;;;9.63;5.93;;;7.80;99.90;;;;;;5018278;28;20498;-66
2024/01/04 10:32:00;;;;;;;5.83;4.60;;;7.80;99.90;;;;;;5017541;28;20464;-67
2024/01/04 10:34:28;;;;;;;8.60;5.27;;;7.70;99.90;;;;;;5018330;28;20769;-67
2024/01/04 10:37:08;;;;;;;7.23;5.30;;;7.70;99.90;;;;;;5018527;28;20479;-68
2024/01/04 10:39:36;;;;;;;10.23;5.13;;;7.80;99.90;;;;;;5015741;28;20495;-67
2024/01/04 10:42:05;;;;;;;5.80;4.70;;;7.70;99.90;;;;;;5016468;28;20460;-68
2024/01/04 10:44:33;;;;;;;5.73;4.47;;;7.80;99.90;;;;;;5018119;28;20503;-65
2024/01/04 10:47:01;;;;;;;6.87;4.30;;;7.90;99.90;;;;;;5017734;28;20510;-66
2024/01/04 10:49:29;;;;;;;9.80;5.00;;;7.90;99.90;;;;;;5017360;28;20543;-66
2024/01/04 10:52:00;;;;;;;5.73;4.13;;;7.90;99.90;;;;;;5017578;28;20461;-67
2024/01/04 10:54:32;;;;;;;5.73;4.00;;;7.90;99.90;;;;;;5018954;28;20443;-67
2024/01/04 10:57:00;;;;;;;4.60;4.20;;;7.90;99.90;;;;;;5019428;28;20467;-67
2024/01/04 10:59:29;;;;;;;7.60;3.57;;;7.90;99.90;;;;;;5018718;28;20504;-67
2024/01/04 11:01:59;;;;;;;4.63;3.40;;;7.90;99.90;;;;;;5018875;28;20496;-66
2024/01/04 11:04:27;;;;;;;4.03;3.00;;;7.90;99.90;;;;;;5005046;28;20891;-65
2024/01/04 11:06:54;;;;;;;4.67;3.43;;;7.90;99.90;;;;;;4999503;28;20465;-66
2024/01/04 11:09:25;;;;;;;4.57;3.67;;;7.80;99.90;;;;;;4999106;28;20436;-67
2024/01/04 11:11:53;;;;;;;5.60;3.70;;;7.60;99.90;;;;;;4998191;28;20515;-67
2024/01/04 11:14:21;;;;;;;4.20;3.80;;;7.60;99.90;;;;;;4997789;28;20784;-68
2024/01/04 11:17:05;;;;;;;5.70;4.77;;;7.60;99.90;;;;;;4997948;28;20461;-69
2024/01/04 11:19:46;;;;;;;6.20;4.80;;;7.60;99.90;;;;;;4997913;28;20551;-69
2024/01/04 11:22:29;;;;;;;7.30;5.00;;;7.60;99.90;;;;;;4998374;28;20465;-69
2024/01/04 11:25:05;;;;;;;8.27;4.60;;;7.60;99.90;;;;;;4996908;28;20492;-69
2024/01/04 11:27:34;;;;;;;7.70;4.80;;;7.60;99.90;;;;;;4997511;28;20917;-69
2024/01/04 11:30:03;;;;;;;7.10;5.50;;;7.60;99.90;;;;;;4997284;28;20958;-68
2024/01/04 11:32:32;;;;;;;9.23;5.03;;;7.60;99.90;;;;;;4996920;28;20631;-67
2024/01/04 11:35:02;;;;;;;7.30;5.13;;;7.70;99.90;;;;;;4996209;28;20465;-68
2024/01/04 11:37:33;;;;;;;7.10;5.03;;;7.70;99.90;;;;;;4997286;28;20972;-68
2024/01/04 11:40:03;;;;;;;7.10;5.17;;;7.70;99.90;;;;;;4997942;28;20765;-70
2024/01/04 11:42:38;;;;;;;8.27;5.70;;;7.70;99.90;;;;;;4998571;28;20898;-70
2024/01/04 11:45:07;;;;;;;5.00;4.50;;;7.70;99.90;;;;;;4998293;28;20456;-70
2024/01/04 11:47:38;;;;;;;6.00;5.00;;;7.70;99.90;;;;;;4997849;28;20819;-69
2024/01/04 11:50:15;;;;;;;8.13;5.10;;;7.70;99.90;;;;;;4998045;28;20568;-70
2024/01/04 11:52:42;;;;;;;6.17;4.97;;;7.80;99.90;;;;;;4998136;28;20587;-70
2024/01/04 11:55:12;;;;;;;6.87;5.40;;;7.80;99.90;;;;;;5012381;28;20487;-70
2024/01/04 11:57:41;;;;;;;9.13;5.10;;;7.90;99.90;;;;;;5015921;28;20818;-67
2024/01/04 12:00:15;;;;;;;6.87;5.40;;;7.90;99.90;;;;;;5017774;28;20492;-69
2024/01/04 12:02:43;;;;;;;6.80;5.20;;;7.90;99.90;;;;;;5016382;28;20472;-70
2024/01/04 12:05:13;;;;;;;7.67;5.30;;;7.90;99.90;;;;;;5017779;28;20759;-70
2024/01/04 12:07:40;;;;;;;9.40;4.93;;;7.90;99.90;;;;;;5017861;28;20983;-69
2024/01/04 12:10:09;;;;;;;6.77;4.27;;;8.00;99.90;;;;;;5016645;28;20869;-70
2024/01/04 12:12:42;;;;;;;5.83;4.90;;;8.00;99.90;;;;;;5015897;28;20837;-70
2024/01/04 12:15:11;;;;;;;6.63;5.47;;;8.00;99.90;;;;;;5017157;28;20566;-69
2024/01/04 12:17:40;;;;;;;8.10;4.63;;;8.20;99.90;;;;;;5017163;28;20463;-68
2024/01/04 12:20:09;;;;;;;6.67;5.20;;;8.20;99.90;;;;;;5017251;28;20518;-68
2024/01/04 12:22:40;;;;;;;8.00;5.30;;;8.10;99.90;;;;;;5017286;28;20456;-67
2024/01/04 12:25:09;;;;;;;5.83;5.23;;;8.10;99.90;;;;;;5015102;28;20582;-67
2024/01/04 12:27:38;;;;;;;6.70;5.17;;;8.10;99.90;;;;;;5014300;28;20460;-68
2024/01/04 12:30:08;;;;;;;5.50;4.63;;;8.10;99.90;;;;;;5014888;28;20889;-67
2024/01/04 12:32:38;;;;;;;6.57;4.80;;;8.00;99.90;;;;;;5015657;28;20463;-67
2024/01/04 12:35:06;;;;;;;5.93;5.33;;;8.00;99.90;;;;;;5015422;28;20464;-67
2024/01/04 12:37:34;;;;;;;5.27;4.00;;;8.00;99.90;;;;;;5015036;28;20460;-67
2024/01/04 12:40:10;;;;;;;4.73;4.20;;;7.90;99.90;;;;;;5015949;28;20933;-68
2024/01/04 12:42:39;;;;;;;6.10;4.67;;;7.90;99.90;;;;;;5016470;28;20470;-68
2024/01/04 12:45:11;;;;;;;6.93;4.33;;;7.90;99.90;;;;;;5016198;28;20467;-69
2024/01/04 12:47:39;;;;;;;6.73;4.23;;;7.80;99.90;;;;;;5016506;28;20464;-67
2024/01/04 12:50:09;;;;;;;6.80;5.13;;;7.70;99.90;;;;;;5017279;28;20870;-68
2024/01/04 12:52:38;;;;;;;6.93;4.90;;;7.80;99.90;;;;;;5016546;28;20514;-68
2024/01/04 12:55:07;;;;;;;7.73;5.57;;;7.90;99.90;;;;;;5015815;28;20471;-68
2024/01/04 12:57:36;;;;;;;7.50;5.60;;;7.90;99.90;;;;;;5014821;28;20499;-68
2024/01/04 13:00:04;;;;;;;6.10;5.10;;;7.90;99.90;;;;;;5013578;28;20487;-68